Terminal Aerodrome Forecast
Issued by NWS

Home | Current Version | Previous Version | Text Only | Print | Product List | Glossary On
Versions: 1 2 3 4 5 6 7 8 9 10 11 12 13 14
390
FTUS43 KIND 271720
TAFHUF
TAF
KHUF 271720Z 2718/2818 08015KT P6SM -SHRA VCTS FEW070 BKN090CB
     FM271900 12007KT 5SM -SHRA BR VCTS BKN060CB
     FM272300 09006KT 6SM -SHRA BR VCTS OVC030CB
     FM280100 13005KT 6SM -SHRA BR VCTS OVC025CB
     FM280300 10004KT 5SM -SHRA BR VCTS OVC015CB
     FM280400 07004KT 5SM BR VCTS OVC020CB
     FM280600 VRB03KT P6SM OVC020
     FM280900 35005KT 6SM BR BKN008
     FM281600 01009KT P6SM BKN020=

USA.gov is the U.S. government's official web portal to all federal, state and local government web resources and services.